createdAt,value
2022-12-09T00:04:04.543Z,42.00
2022-12-09T00:09:15.860Z,38.53
2022-12-09T00:14:23.724Z,43.30
2022-12-09T00:19:32.098Z,41.87
2022-12-09T00:24:39.944Z,43.30
2022-12-09T00:29:47.666Z,43.53
2022-12-09T00:34:56.025Z,40.10
2022-12-09T00:40:06.199Z,40.90
2022-12-09T00:45:14.755Z,40.77
2022-12-09T00:50:23.612Z,38.80
2022-12-09T00:55:32.030Z,37.03
2022-12-09T01:00:40.048Z,36.50
2022-12-09T01:05:49.409Z,40.00
2022-12-09T01:10:57.422Z,34.87
2022-12-09T01:16:06.724Z,34.10
2022-12-09T01:21:14.666Z,38.87
2022-12-09T01:26:22.654Z,36.70
2022-12-09T01:31:30.828Z,37.15
2022-12-09T01:36:40.235Z,33.67
2022-12-09T01:41:50.932Z,34.10
2022-12-09T01:47:01.242Z,39.93
2022-12-09T01:52:15.816Z,33.97
2022-12-09T01:57:23.518Z,33.53
2022-12-09T02:02:33.799Z,36.80
2022-12-09T02:07:42.124Z,39.93
2022-12-09T02:13:11.752Z,33.20
2022-12-09T02:18:32.105Z,32.57
2022-12-09T02:23:41.949Z,37.23
2022-12-09T02:29:09.815Z,31.87
2022-12-09T02:34:23.932Z,42.20
2022-12-09T02:39:47.221Z,31.77
2022-12-09T02:44:54.817Z,39.00
2022-12-09T02:50:05.721Z,32.90
2022-12-09T02:55:15.839Z,36.43
2022-12-09T03:00:28.815Z,41.83
2022-12-09T03:06:00.172Z,40.80
2022-12-09T03:11:13.744Z,37.43
2022-12-09T03:16:30.445Z,38.60
2022-12-09T03:21:41.397Z,35.43
2022-12-09T03:26:49.703Z,41.70
2022-12-09T03:31:57.881Z,38.63
2022-12-09T03:37:05.508Z,37.90
2022-12-09T03:42:27.889Z,38.33
2022-12-09T03:47:35.625Z,46.60
2022-12-09T03:52:45.897Z,48.77
2022-12-09T03:57:55.998Z,43.13
2022-12-09T04:03:04.278Z,39.60
2022-12-09T04:08:12.897Z,37.60
2022-12-09T04:13:20.930Z,35.53
2022-12-09T04:18:29.683Z,38.43
2022-12-09T04:23:42.450Z,51.93
2022-12-09T04:28:46.313Z,38.70
2022-12-09T04:33:53.700Z,46.80
2022-12-09T04:39:01.798Z,43.63
2022-12-09T04:44:09.611Z,47.73
2022-12-09T04:49:18.146Z,44.70
2022-12-09T04:54:26.715Z,56.30
2022-12-09T04:59:34.994Z,52.77
2022-12-09T05:04:43.197Z,44.43
2022-12-09T05:09:52.305Z,44.70
2022-12-09T05:15:00.210Z,39.37
2022-12-09T05:20:09.790Z,49.30
2022-12-09T05:25:17.538Z,53.73
2022-12-09T05:30:25.106Z,44.07
2022-12-09T05:35:42.610Z,48.20
2022-12-09T05:40:44.895Z,44.43
2022-12-09T05:45:52.960Z,47.57
2022-12-09T05:51:05.493Z,53.83
2022-12-09T05:56:18.891Z,50.07
2022-12-09T06:01:28.682Z,46.87
2022-12-09T06:06:36.962Z,56.13
2022-12-09T06:11:44.982Z,64.13
2022-12-09T06:16:52.695Z,64.60
2022-12-09T06:22:01.997Z,55.37
2022-12-09T06:27:09.820Z,64.57
2022-12-09T06:32:18.153Z,65.87
2022-12-09T06:37:28.030Z,71.50
2022-12-09T06:42:35.742Z,57.70
2022-12-09T06:47:43.737Z,74.23
2022-12-09T06:52:52.011Z,59.10
2022-12-09T06:58:01.175Z,59.13
2022-12-09T07:03:09.196Z,57.77
2022-12-09T07:08:18.278Z,57.60
2022-12-09T07:13:26.455Z,62.60
2022-12-09T07:18:36.118Z,65.27
2022-12-09T07:23:44.246Z,64.93
2022-12-09T07:28:52.058Z,75.33
2022-12-09T07:34:01.052Z,78.17
2022-12-09T07:39:10.990Z,94.10
2022-12-09T07:44:18.737Z,72.13
2022-12-09T07:49:27.322Z,60.37
2022-12-09T07:54:35.565Z,49.83
2022-12-09T07:59:43.417Z,66.00
2022-12-09T08:04:51.308Z,76.97
2022-12-09T08:09:59.660Z,76.53
2022-12-09T08:15:09.104Z,80.60
2022-12-09T08:20:20.398Z,74.40
2022-12-09T08:25:27.391Z,95.93
2022-12-09T08:30:36.067Z,83.40
2022-12-09T08:35:44.522Z,72.93
2022-12-09T08:40:53.045Z,77.57
2022-12-09T08:46:01.740Z,68.13
2022-12-09T08:51:10.905Z,71.60
2022-12-09T08:56:20.748Z,70.40
2022-12-09T09:01:32.109Z,73.47
2022-12-09T09:06:42.578Z,69.50
2022-12-09T09:11:51.036Z,81.07
2022-12-09T09:16:59.312Z,78.17
2022-12-09T09:22:09.364Z,72.47
2022-12-09T09:27:20.609Z,69.47
2022-12-09T09:32:33.826Z,61.87
2022-12-09T09:37:42.488Z,58.37
2022-12-09T09:42:51.152Z,65.63
2022-12-09T09:48:03.772Z,52.30
2022-12-09T09:53:18.840Z,65.50
2022-12-09T09:58:45.084Z,50.73
2022-12-09T10:04:19.318Z,46.97
2022-12-09T10:09:41.780Z,39.83
2022-12-09T10:15:10.621Z,41.90
2022-12-09T10:20:26.546Z,59.53
2022-12-09T10:25:37.632Z,52.23
2022-12-09T10:30:46.179Z,51.37
2022-12-09T10:35:54.225Z,51.33
2022-12-09T10:41:08.008Z,53.60
2022-12-09T10:46:22.056Z,48.83
2022-12-09T10:51:35.614Z,54.43
2022-12-09T10:57:05.678Z,41.67
2022-12-09T11:02:21.964Z,37.40
2022-12-09T11:07:36.429Z,41.47
2022-12-09T11:12:48.039Z,42.93
2022-12-09T11:18:05.410Z,37.90
2022-12-09T11:23:17.295Z,44.10
2022-12-09T11:28:36.828Z,36.63
2022-12-09T11:33:56.942Z,31.53
2022-12-09T11:39:34.150Z,27.10
2022-12-09T11:44:51.119Z,31.40
2022-12-09T11:50:09.527Z,37.35
2022-12-09T11:55:21.556Z,31.73
2022-12-09T12:00:45.410Z,39.30
2022-12-09T12:05:55.318Z,44.27
2022-12-09T12:11:15.272Z,42.37
2022-12-09T12:16:39.841Z,39.70
2022-12-09T12:22:24.837Z,36.77
2022-12-09T12:27:51.960Z,35.30
2022-12-09T12:34:07.952Z,30.83
2022-12-09T12:38:54.134Z,36.40
2022-12-09T12:44:31.599Z,39.27
2022-12-09T12:50:06.110Z,42.00
2022-12-09T12:55:34.082Z,44.97
2022-12-09T13:00:48.243Z,42.77
2022-12-09T13:05:58.164Z,37.17
2022-12-09T13:11:14.892Z,29.87
2022-12-09T13:16:30.063Z,24.30
2022-12-09T13:21:38.222Z,24.57
2022-12-09T13:27:10.009Z,30.23
2022-12-09T13:32:42.458Z,27.70
2022-12-09T13:37:55.972Z,32.33
2022-12-09T13:43:07.647Z,26.20
2022-12-09T13:48:18.521Z,25.57
2022-12-09T13:53:35.599Z,28.30
2022-12-09T13:59:02.105Z,26.17
2022-12-09T14:04:15.541Z,29.23
2022-12-09T14:09:26.466Z,38.67
2022-12-09T14:14:38.970Z,65.47
2022-12-09T14:19:56.606Z,56.10
2022-12-09T14:25:32.640Z,56.80
2022-12-09T14:30:51.787Z,57.90
2022-12-09T14:36:08.917Z,38.30
2022-12-09T14:41:26.635Z,36.83
2022-12-09T14:46:35.944Z,36.30
2022-12-09T14:51:58.434Z,39.67
2022-12-09T14:57:10.633Z,44.23
2022-12-09T15:02:26.235Z,47.73
2022-12-09T15:07:35.812Z,46.07
2022-12-09T15:12:45.984Z,54.90
2022-12-09T15:17:59.233Z,60.60
2022-12-09T15:23:38.321Z,53.77
2022-12-09T15:28:50.274Z,75.87
2022-12-09T15:33:59.911Z,65.40
2022-12-09T15:39:11.516Z,74.87
2022-12-09T15:44:20.563Z,68.37
2022-12-09T15:49:30.780Z,70.17
2022-12-09T15:54:40.593Z,75.07
2022-12-09T15:59:55.849Z,84.13
2022-12-09T16:05:04.434Z,77.57
2022-12-09T16:10:16.742Z,78.27
2022-12-09T16:15:28.447Z,78.07
2022-12-09T16:20:43.953Z,70.67
2022-12-09T16:25:52.352Z,72.80
2022-12-09T16:31:05.665Z,76.17
2022-12-09T16:36:19.727Z,75.77
2022-12-09T16:41:31.216Z,84.53
2022-12-09T16:46:41.292Z,81.73
2022-12-09T16:51:48.990Z,86.30
2022-12-09T16:56:59.400Z,93.47
2022-12-09T17:02:13.536Z,96.13
2022-12-09T17:07:21.350Z,85.67
2022-12-09T17:12:30.508Z,100.00
2022-12-09T17:17:41.731Z,102.20
2022-12-09T17:22:52.172Z,94.67
2022-12-09T17:28:05.325Z,92.77
2022-12-09T17:33:13.767Z,98.27
2022-12-09T17:38:22.228Z,102.73
2022-12-09T17:43:36.131Z,101.30
2022-12-09T17:48:43.908Z,100.03
2022-12-09T17:53:56.283Z,96.97
2022-12-09T17:59:08.594Z,101.67
2022-12-09T18:04:17.210Z,102.53
2022-12-09T18:09:25.066Z,104.77
2022-12-09T18:14:33.057Z,105.87
2022-12-09T18:19:44.023Z,102.23
2022-12-09T18:24:52.638Z,103.37
2022-12-09T18:30:03.154Z,118.37
2022-12-09T18:35:11.784Z,102.97
2022-12-09T18:40:21.573Z,107.67
2022-12-09T18:45:29.360Z,106.33
2022-12-09T18:50:38.596Z,125.33
2022-12-09T18:55:46.136Z,110.67
2022-12-09T19:00:55.148Z,112.32
2022-12-09T19:06:03.117Z,112.40
2022-12-09T19:11:12.590Z,108.67
2022-12-09T19:16:20.216Z,108.70
2022-12-09T19:21:28.063Z,108.47
2022-12-09T19:26:37.686Z,102.87
2022-12-09T19:31:49.258Z,114.13
2022-12-09T19:37:02.313Z,114.27
2022-12-09T19:42:13.504Z,111.67
2022-12-09T19:47:22.251Z,106.73
2022-12-09T19:52:31.637Z,113.77
2022-12-09T19:57:39.423Z,118.40
2022-12-09T20:02:47.386Z,124.37
2022-12-09T20:07:56.117Z,119.93
2022-12-09T20:13:05.551Z,124.67
2022-12-09T20:18:14.898Z,140.73
2022-12-09T20:23:23.638Z,131.00
2022-12-09T20:28:32.431Z,155.53
2022-12-09T20:33:41.358Z,148.90
2022-12-09T20:38:53.345Z,152.03
2022-12-09T20:44:01.092Z,152.77
2022-12-09T20:49:11.934Z,146.57
2022-12-09T20:54:20.504Z,160.63
2022-12-09T20:59:28.362Z,166.67
2022-12-09T21:04:37.525Z,154.07
2022-12-09T21:09:46.659Z,167.57
2022-12-09T21:14:55.692Z,157.20
2022-12-09T21:20:03.613Z,149.83
2022-12-09T21:25:15.757Z,146.80
2022-12-09T21:30:24.804Z,160.37
2022-12-09T21:35:37.816Z,157.50
2022-12-09T21:40:47.048Z,146.77
2022-12-09T21:45:55.114Z,155.73
2022-12-09T21:51:03.687Z,162.80
2022-12-09T21:56:22.199Z,161.57
2022-12-09T22:01:32.547Z,167.63
2022-12-09T22:06:40.391Z,151.13
2022-12-09T22:11:48.226Z,148.27
2022-12-09T22:16:56.037Z,161.33
2022-12-09T22:22:09.157Z,149.67
2022-12-09T22:27:16.392Z,147.90
2022-12-09T22:32:25.121Z,151.17
2022-12-09T22:37:43.533Z,148.70
2022-12-09T22:42:46.302Z,151.53
2022-12-09T22:47:56.217Z,148.87
2022-12-09T22:53:05.105Z,176.23
2022-12-09T22:58:14.356Z,168.10
2022-12-09T23:03:22.398Z,167.93
2022-12-09T23:08:31.455Z,179.37
2022-12-09T23:13:41.352Z,181.40
2022-12-09T23:18:48.814Z,169.40
2022-12-09T23:23:58.170Z,173.83
2022-12-09T23:29:06.787Z,179.00
2022-12-09T23:34:14.911Z,158.73
2022-12-09T23:39:23.462Z,170.00
2022-12-09T23:44:31.442Z,183.13
2022-12-09T23:49:41.970Z,190.57
2022-12-09T23:54:49.842Z,200.00
2022-12-09T23:59:59.369Z,185.43
